Skip Navigation Links
NOAA logo - Click to go to the NOAA homepage
NOAA's National Weather Service
Alaska Aviation Weather Unit
  NWS logo - Click to go to the NWS homepage
Left Navbar Graphic     12 AKDT = 20 GMT

   
NOAA is celebrating 200 years of science, service, and stewardship. Visit the NOAA 200th celebration Web site to learn more.
USA.gov is the U.S. Government's official Web portal to all Federal, state and local government Web resources and services.
Facebook
NWS on Facebook

Important Change Regarding the AAWU Web Presence

 

Over the last several months, the AAWU has been working to navigate its webpages to a nationally supported server. Security, as well as other needs, have necessitated the change.  We have been given an extension for the site changeover while we diligently work at addressing feedback received. As of July 14, 2017, aawu.arh.noaa.gov will be discontinued. The new AAWU web address is weather.gov/aawu. It is now live and will run in-parallel with the old site until it is discontinued on July 14, 2017. Please continue to send any feedback or questions regarding the new webpages to nws.ar.aawu.webauthors@noaa.gov.  Thank you for your patience during this time of transition.
AAWU Home :: Display TAF Add Bookmark
TAF PAED 251900Z 2519/2701 24006KT 9000 -RA OVC004 QNH2994INS
      BECMG 2522/2523 24006KT 9999 BKN010 OVC030 QNH2989INS
      TEMPO 2600/2607 9000 -RA
      BECMG 2608/2609 26004KT 8000 -RA BKN002 OVC010 QNH2985INS
      TX19/2600Z TN12/2612Z=
PAED 251411Z AUTO 00000KT 10SM OVC007 13/13 A3000=

PAED 251441Z AUTO 00000KT 10SM OVC006 13/13 A3000=

METAR PAED 251458Z AUTO 00000KT 10SM OVC006 13/13 A3000=

PAED 251507Z AUTO 00000KT 10SM -DZ OVC006 13/13 A3000=

PAED 251517Z AUTO 00000KT 10SM -DZ OVC007 13/13 A3000=

PAED 251522Z AUTO 00000KT 10SM OVC007 13/13 A3000=

PAED 251532Z AUTO 00000KT 10SM OVC006 13/13 A3000=

METAR PAED 251558Z AUTO 00000KT 10SM OVC005 13/13 A2999=

PAED 251634Z AUTO 25004KT 10SM -DZ OVC005 13/13 A2999=

PAED 251654Z AUTO 24003KT 9SM -DZ OVC004 13/13 A2999=

METAR PAED 251658Z AUTO 24004KT 9SM -DZ OVC004 13/13 A2999=

PAED 251708Z AUTO 24004KT 5SM -RA BR BKN002 OVC006 13/13 A2999=

METAR PAED 251758Z AUTO 24003KT 4SM -RA BR BKN002 OVC007 13/13 A2999=

PAED 251838Z AUTO 25003KT 9SM -DZ BKN003 OVC008 13/13 A2999=

PAED 251842Z AUTO 23003KT 10SM OVC003 13/13 A2999=

METAR PAED 251858Z AUTO 00000KT 10SM OVC004 13/13 A2999=

METAR PAED 251958Z AUTO 00000KT 10SM OVC003 14/14 A2998=

PAED 252016Z AUTO 00000KT 9SM -DZ OVC005 14/14 A2998=

PAED 252031Z AUTO 00000KT 10SM OVC005 14/14 A2998=


NOAA's National Weather Service
Alaska Aviation Weather Unit
6930 Sand Lake Road
Anchorage, AK 99502-1845
Disclaimer
Credits
Glossary
Privacy Policy
About Us
Career Opportunities
Contact AAWU Internet Services Site last modified: April, 17th 2012